sensor_id;sensor_type;location;lat;lon;timestamp;temperature;humidity
58983;DHT22;44771;49.982;8.560;2023-09-19T00:02:01;16.00;99.90
58983;DHT22;44771;49.982;8.560;2023-09-19T00:07:03;16.10;99.90
58983;DHT22;44771;49.982;8.560;2023-09-19T00:12:07;16.10;99.90
58983;DHT22;44771;49.982;8.560;2023-09-19T00:17:09;16.10;99.90
58983;DHT22;44771;49.982;8.560;2023-09-19T00:22:10;16.10;99.90
58983;DHT22;44771;49.982;8.560;2023-09-19T00:27:14;16.10;99.90
58983;DHT22;44771;49.982;8.560;2023-09-19T00:32:15;16.10;99.90
58983;DHT22;44771;49.982;8.560;2023-09-19T00:37:17;16.10;99.90
58983;DHT22;44771;49.982;8.560;2023-09-19T00:42:21;16.10;99.90
58983;DHT22;44771;49.982;8.560;2023-09-19T00:47:22;16.10;99.90
58983;DHT22;44771;49.982;8.560;2023-09-19T00:52:25;16.10;99.90
58983;DHT22;44771;49.982;8.560;2023-09-19T00:57:30;16.10;99.90
58983;DHT22;44771;49.982;8.560;2023-09-19T01:02:32;16.10;99.90
58983;DHT22;44771;49.982;8.560;2023-09-19T01:07:34;16.10;99.90
58983;DHT22;44771;49.982;8.560;2023-09-19T01:12:45;16.10;99.90
58983;DHT22;44771;49.982;8.560;2023-09-19T01:17:56;16.00;99.90
58983;DHT22;44771;49.982;8.560;2023-09-19T01:23:08;16.10;99.90
58983;DHT22;44771;49.982;8.560;2023-09-19T01:28:32;16.00;99.90
58983;DHT22;44771;49.982;8.560;2023-09-19T01:33:57;16.00;99.90
58983;DHT22;44771;49.982;8.560;2023-09-19T01:38:59;16.00;99.90
58983;DHT22;44771;49.982;8.560;2023-09-19T01:44:04;16.00;99.90
58983;DHT22;44771;49.982;8.560;2023-09-19T01:49:18;16.00;99.90
58983;DHT22;44771;49.982;8.560;2023-09-19T01:54:26;15.90;99.90
58983;DHT22;44771;49.982;8.560;2023-09-19T01:59:35;15.90;99.90
58983;DHT22;44771;49.982;8.560;2023-09-19T02:04:39;15.70;99.90
58983;DHT22;44771;49.982;8.560;2023-09-19T02:09:41;15.60;99.90
58983;DHT22;44771;49.982;8.560;2023-09-19T02:14:43;15.60;99.90
58983;DHT22;44771;49.982;8.560;2023-09-19T02:19:46;15.60;99.90
58983;DHT22;44771;49.982;8.560;2023-09-19T02:24:48;15.60;99.90
58983;DHT22;44771;49.982;8.560;2023-09-19T02:29:50;15.50;99.90
58983;DHT22;44771;49.982;8.560;2023-09-19T02:34:53;15.50;99.90
58983;DHT22;44771;49.982;8.560;2023-09-19T02:39:55;15.60;99.90
58983;DHT22;44771;49.982;8.560;2023-09-19T02:44:57;15.50;99.90
58983;DHT22;44771;49.982;8.560;2023-09-19T02:50:00;15.40;99.90
58983;DHT22;44771;49.982;8.560;2023-09-19T02:55:03;15.40;99.90
58983;DHT22;44771;49.982;8.560;2023-09-19T03:00:06;15.30;99.90
58983;DHT22;44771;49.982;8.560;2023-09-19T03:05:09;15.30;99.90
58983;DHT22;44771;49.982;8.560;2023-09-19T03:10:11;15.20;99.90
58983;DHT22;44771;49.982;8.560;2023-09-19T03:15:14;15.20;99.90
58983;DHT22;44771;49.982;8.560;2023-09-19T03:20:17;15.20;99.90
58983;DHT22;44771;49.982;8.560;2023-09-19T03:25:19;15.30;99.90
58983;DHT22;44771;49.982;8.560;2023-09-19T03:30:21;15.20;99.90
58983;DHT22;44771;49.982;8.560;2023-09-19T03:35:25;15.20;99.90
58983;DHT22;44771;49.982;8.560;2023-09-19T03:40:26;15.20;99.90
58983;DHT22;44771;49.982;8.560;2023-09-19T03:45:28;15.10;99.90
58983;DHT22;44771;49.982;8.560;2023-09-19T03:50:31;15.10;99.90
58983;DHT22;44771;49.982;8.560;2023-09-19T03:55:33;15.10;99.90
58983;DHT22;44771;49.982;8.560;2023-09-19T04:00:35;15.00;99.90
58983;DHT22;44771;49.982;8.560;2023-09-19T04:05:41;15.00;99.90
58983;DHT22;44771;49.982;8.560;2023-09-19T04:10:43;15.00;99.90
58983;DHT22;44771;49.982;8.560;2023-09-19T04:15:45;14.90;99.90
58983;DHT22;44771;49.982;8.560;2023-09-19T04:20:49;14.80;99.90
58983;DHT22;44771;49.982;8.560;2023-09-19T04:25:51;14.90;99.90
58983;DHT22;44771;49.982;8.560;2023-09-19T04:30:53;14.90;99.90
58983;DHT22;44771;49.982;8.560;2023-09-19T04:35:56;15.00;99.90
58983;DHT22;44771;49.982;8.560;2023-09-19T04:41:08;15.00;99.90
58983;DHT22;44771;49.982;8.560;2023-09-19T04:46:10;15.00;99.90
58983;DHT22;44771;49.982;8.560;2023-09-19T04:51:13;15.00;99.90
58983;DHT22;44771;49.982;8.560;2023-09-19T04:56:15;15.00;99.90
58983;DHT22;44771;49.982;8.560;2023-09-19T05:01:17;15.00;99.90
58983;DHT22;44771;49.982;8.560;2023-09-19T05:06:20;15.10;99.90
58983;DHT22;44771;49.982;8.560;2023-09-19T05:11:24;15.00;99.90
58983;DHT22;44771;49.982;8.560;2023-09-19T05:16:28;14.90;99.90
58983;DHT22;44771;49.982;8.560;2023-09-19T05:21:31;14.90;99.90
58983;DHT22;44771;49.982;8.560;2023-09-19T05:26:33;15.00;99.90
58983;DHT22;44771;49.982;8.560;2023-09-19T05:31:35;15.00;99.90
58983;DHT22;44771;49.982;8.560;2023-09-19T05:36:38;14.90;99.90
58983;DHT22;44771;49.982;8.560;2023-09-19T05:41:40;14.90;99.90
58983;DHT22;44771;49.982;8.560;2023-09-19T05:46:42;15.00;99.90
58983;DHT22;44771;49.982;8.560;2023-09-19T05:51:45;15.00;99.90
58983;DHT22;44771;49.982;8.560;2023-09-19T05:56:47;15.20;99.90
58983;DHT22;44771;49.982;8.560;2023-09-19T06:01:49;15.20;99.90
58983;DHT22;44771;49.982;8.560;2023-09-19T06:06:52;15.30;99.90
58983;DHT22;44771;49.982;8.560;2023-09-19T06:11:54;15.30;99.90
58983;DHT22;44771;49.982;8.560;2023-09-19T06:16:55;15.30;99.90
58983;DHT22;44771;49.982;8.560;2023-09-19T06:21:59;15.30;99.90
58983;DHT22;44771;49.982;8.560;2023-09-19T06:27:01;15.50;99.90
58983;DHT22;44771;49.982;8.560;2023-09-19T06:32:05;15.50;99.90
58983;DHT22;44771;49.982;8.560;2023-09-19T06:37:09;15.60;99.90
58983;DHT22;44771;49.982;8.560;2023-09-19T06:42:11;15.60;99.90
58983;DHT22;44771;49.982;8.560;2023-09-19T06:47:13;15.70;99.90
58983;DHT22;44771;49.982;8.560;2023-09-19T06:52:16;15.80;99.90
58983;DHT22;44771;49.982;8.560;2023-09-19T06:57:18;15.90;99.90
58983;DHT22;44771;49.982;8.560;2023-09-19T07:02:20;16.00;99.90
58983;DHT22;44771;49.982;8.560;2023-09-19T07:07:23;16.00;99.90
58983;DHT22;44771;49.982;8.560;2023-09-19T07:12:25;16.10;99.90
58983;DHT22;44771;49.982;8.560;2023-09-19T07:17:26;16.20;99.90
58983;DHT22;44771;49.982;8.560;2023-09-19T07:22:29;16.30;99.90
58983;DHT22;44771;49.982;8.560;2023-09-19T07:27:31;16.40;99.90
58983;DHT22;44771;49.982;8.560;2023-09-19T07:32:33;16.50;99.90
58983;DHT22;44771;49.982;8.560;2023-09-19T07:37:36;16.50;99.90
58983;DHT22;44771;49.982;8.560;2023-09-19T07:42:38;16.70;99.90
58983;DHT22;44771;49.982;8.560;2023-09-19T07:47:43;16.70;99.90
58983;DHT22;44771;49.982;8.560;2023-09-19T07:52:46;16.80;99.90
58983;DHT22;44771;49.982;8.560;2023-09-19T07:57:48;17.00;99.90
58983;DHT22;44771;49.982;8.560;2023-09-19T08:02:50;17.00;99.90
58983;DHT22;44771;49.982;8.560;2023-09-19T08:08:00;17.00;99.90
58983;DHT22;44771;49.982;8.560;2023-09-19T08:13:02;17.00;99.90
58983;DHT22;44771;49.982;8.560;2023-09-19T08:18:04;17.00;99.90
58983;DHT22;44771;49.982;8.560;2023-09-19T08:23:08;17.00;99.90
58983;DHT22;44771;49.982;8.560;2023-09-19T08:28:10;17.00;99.90
58983;DHT22;44771;49.982;8.560;2023-09-19T08:33:11;17.00;99.90
58983;DHT22;44771;49.982;8.560;2023-09-19T08:38:15;17.10;99.90
58983;DHT22;44771;49.982;8.560;2023-09-19T08:43:17;17.30;99.90
58983;DHT22;44771;49.982;8.560;2023-09-19T08:48:22;17.40;99.90
58983;DHT22;44771;49.982;8.560;2023-09-19T08:53:35;17.50;99.90
58983;DHT22;44771;49.982;8.560;2023-09-19T08:58:46;17.80;99.90
58983;DHT22;44771;49.982;8.560;2023-09-19T09:03:49;17.70;99.90
58983;DHT22;44771;49.982;8.560;2023-09-19T09:08:53;17.70;99.00
58983;DHT22;44771;49.982;8.560;2023-09-19T09:13:55;17.90;99.20
58983;DHT22;44771;49.982;8.560;2023-09-19T09:18:57;18.10;97.80
58983;DHT22;44771;49.982;8.560;2023-09-19T09:24:27;18.30;98.00
58983;DHT22;44771;49.982;8.560;2023-09-19T09:29:42;18.50;97.90
58983;DHT22;44771;49.982;8.560;2023-09-19T09:34:44;18.50;95.50
58983;DHT22;44771;49.982;8.560;2023-09-19T09:39:51;18.60;94.60
58983;DHT22;44771;49.982;8.560;2023-09-19T09:45:12;18.70;94.90
58983;DHT22;44771;49.982;8.560;2023-09-19T09:50:14;19.00;93.70
58983;DHT22;44771;49.982;8.560;2023-09-19T09:55:26;19.10;91.80
58983;DHT22;44771;49.982;8.560;2023-09-19T10:00:28;19.10;92.80
58983;DHT22;44771;49.982;8.560;2023-09-19T10:05:32;19.30;91.00
58983;DHT22;44771;49.982;8.560;2023-09-19T10:10:36;19.40;90.50
58983;DHT22;44771;49.982;8.560;2023-09-19T10:15:39;19.50;87.60
58983;DHT22;44771;49.982;8.560;2023-09-19T10:20:41;19.60;90.20
58983;DHT22;44771;49.982;8.560;2023-09-19T10:25:44;19.90;90.40
58983;DHT22;44771;49.982;8.560;2023-09-19T10:30:48;20.10;90.00
58983;DHT22;44771;49.982;8.560;2023-09-19T10:35:51;20.20;87.00
58983;DHT22;44771;49.982;8.560;2023-09-19T10:40:55;19.90;88.90
58983;DHT22;44771;49.982;8.560;2023-09-19T10:46:01;20.10;87.70
58983;DHT22;44771;49.982;8.560;2023-09-19T10:51:07;20.60;87.80
58983;DHT22;44771;49.982;8.560;2023-09-19T10:56:18;20.10;87.60
58983;DHT22;44771;49.982;8.560;2023-09-19T11:01:20;20.50;85.40
58983;DHT22;44771;49.982;8.560;2023-09-19T11:06:22;20.90;83.00
58983;DHT22;44771;49.982;8.560;2023-09-19T11:11:42;21.20;78.50
58983;DHT22;44771;49.982;8.560;2023-09-19T11:22:23;20.70;77.80
58983;DHT22;44771;49.982;8.560;2023-09-19T11:27:27;21.00;76.60
58983;DHT22;44771;49.982;8.560;2023-09-19T11:38:04;20.80;75.00
58983;DHT22;44771;49.982;8.560;2023-09-19T11:43:29;21.30;72.90
58983;DHT22;44771;49.982;8.560;2023-09-19T11:48:31;21.10;72.30
58983;DHT22;44771;49.982;8.560;2023-09-19T11:53:33;21.10;71.10
58983;DHT22;44771;49.982;8.560;2023-09-19T11:58:37;21.30;73.80
58983;DHT22;44771;49.982;8.560;2023-09-19T12:03:42;21.50;71.90
58983;DHT22;44771;49.982;8.560;2023-09-19T12:08:47;21.50;71.80
58983;DHT22;44771;49.982;8.560;2023-09-19T12:13:51;21.40;70.50
58983;DHT22;44771;49.982;8.560;2023-09-19T12:18:55;21.70;70.40
58983;DHT22;44771;49.982;8.560;2023-09-19T12:24:07;22.00;66.80
58983;DHT22;44771;49.982;8.560;2023-09-19T12:29:18;22.00;66.10
58983;DHT22;44771;49.982;8.560;2023-09-19T12:34:21;21.70;68.30
58983;DHT22;44771;49.982;8.560;2023-09-19T12:39:24;21.90;66.10
58983;DHT22;44771;49.982;8.560;2023-09-19T12:44:27;22.00;64.40
58983;DHT22;44771;49.982;8.560;2023-09-19T12:49:29;22.00;64.90
58983;DHT22;44771;49.982;8.560;2023-09-19T12:54:38;22.10;66.30
58983;DHT22;44771;49.982;8.560;2023-09-19T12:59:41;22.30;64.50
58983;DHT22;44771;49.982;8.560;2023-09-19T13:04:52;22.00;66.40
58983;DHT22;44771;49.982;8.560;2023-09-19T13:10:02;21.90;65.90
58983;DHT22;44771;49.982;8.560;2023-09-19T13:15:10;22.00;68.30
58983;DHT22;44771;49.982;8.560;2023-09-19T13:20:22;21.90;66.90
58983;DHT22;44771;49.982;8.560;2023-09-19T13:25:24;21.80;66.60
58983;DHT22;44771;49.982;8.560;2023-09-19T13:30:27;21.70;67.60
58983;DHT22;44771;49.982;8.560;2023-09-19T13:35:29;21.70;67.30
58983;DHT22;44771;49.982;8.560;2023-09-19T13:40:32;21.70;70.60
58983;DHT22;44771;49.982;8.560;2023-09-19T13:45:35;21.80;66.30
58983;DHT22;44771;49.982;8.560;2023-09-19T13:50:37;21.90;65.50
58983;DHT22;44771;49.982;8.560;2023-09-19T13:55:39;21.70;67.20
58983;DHT22;44771;49.982;8.560;2023-09-19T14:00:42;21.30;66.50
58983;DHT22;44771;49.982;8.560;2023-09-19T14:05:44;21.20;67.30
58983;DHT22;44771;49.982;8.560;2023-09-19T14:10:46;20.90;67.20
58983;DHT22;44771;49.982;8.560;2023-09-19T14:15:49;21.00;67.00
58983;DHT22;44771;49.982;8.560;2023-09-19T14:20:51;20.90;68.80
58983;DHT22;44771;49.982;8.560;2023-09-19T14:25:53;20.90;68.70
58983;DHT22;44771;49.982;8.560;2023-09-19T14:30:56;20.70;69.70
58983;DHT22;44771;49.982;8.560;2023-09-19T14:35:58;20.60;70.00
58983;DHT22;44771;49.982;8.560;2023-09-19T14:41:03;20.60;73.20
58983;DHT22;44771;49.982;8.560;2023-09-19T14:46:07;20.70;72.00
58983;DHT22;44771;49.982;8.560;2023-09-19T14:51:09;20.80;71.60
58983;DHT22;44771;49.982;8.560;2023-09-19T14:56:11;20.80;71.00
58983;DHT22;44771;49.982;8.560;2023-09-19T15:01:14;20.60;74.20
58983;DHT22;44771;49.982;8.560;2023-09-19T15:06:16;20.50;72.80
58983;DHT22;44771;49.982;8.560;2023-09-19T15:11:17;20.30;73.70
58983;DHT22;44771;49.982;8.560;2023-09-19T15:16:21;20.40;72.10
58983;DHT22;44771;49.982;8.560;2023-09-19T15:21:23;20.60;72.40
58983;DHT22;44771;49.982;8.560;2023-09-19T15:26:24;20.70;73.40
58983;DHT22;44771;49.982;8.560;2023-09-19T15:31:28;20.70;72.40
58983;DHT22;44771;49.982;8.560;2023-09-19T15:36:32;20.60;72.70
58983;DHT22;44771;49.982;8.560;2023-09-19T15:41:35;20.50;73.70
58983;DHT22;44771;49.982;8.560;2023-09-19T15:46:38;20.30;74.90
58983;DHT22;44771;49.982;8.560;2023-09-19T15:51:41;20.20;76.00
58983;DHT22;44771;49.982;8.560;2023-09-19T15:56:44;20.20;75.60
58983;DHT22;44771;49.982;8.560;2023-09-19T16:01:47;20.30;76.10
58983;DHT22;44771;49.982;8.560;2023-09-19T16:06:51;20.40;76.10
58983;DHT22;44771;49.982;8.560;2023-09-19T16:11:52;20.40;76.70
58983;DHT22;44771;49.982;8.560;2023-09-19T16:16:56;20.40;75.90
58983;DHT22;44771;49.982;8.560;2023-09-19T16:21:57;20.40;75.50
58983;DHT22;44771;49.982;8.560;2023-09-19T16:26:59;20.40;76.60
58983;DHT22;44771;49.982;8.560;2023-09-19T16:32:03;20.40;77.80
58983;DHT22;44771;49.982;8.560;2023-09-19T16:37:05;20.20;80.10
58983;DHT22;44771;49.982;8.560;2023-09-19T16:42:07;20.10;79.80
58983;DHT22;44771;49.982;8.560;2023-09-19T16:47:23;19.90;80.50
58983;DHT22;44771;49.982;8.560;2023-09-19T16:52:25;19.70;82.40
58983;DHT22;44771;49.982;8.560;2023-09-19T16:57:27;19.60;82.10
58983;DHT22;44771;49.982;8.560;2023-09-19T17:02:30;19.40;84.00
58983;DHT22;44771;49.982;8.560;2023-09-19T17:07:32;19.20;85.40
58983;DHT22;44771;49.982;8.560;2023-09-19T17:12:34;19.10;85.80
58983;DHT22;44771;49.982;8.560;2023-09-19T17:17:37;19.20;86.10
58983;DHT22;44771;49.982;8.560;2023-09-19T17:22:39;19.10;86.30
58983;DHT22;44771;49.982;8.560;2023-09-19T17:27:41;19.00;86.50
58983;DHT22;44771;49.982;8.560;2023-09-19T17:32:45;18.90;87.20
58983;DHT22;44771;49.982;8.560;2023-09-19T17:37:46;18.80;87.90
58983;DHT22;44771;49.982;8.560;2023-09-19T17:42:48;18.80;88.10
58983;DHT22;44771;49.982;8.560;2023-09-19T17:47:51;18.80;87.80
58983;DHT22;44771;49.982;8.560;2023-09-19T17:52:53;18.70;87.60
58983;DHT22;44771;49.982;8.560;2023-09-19T17:57:55;18.60;88.50
58983;DHT22;44771;49.982;8.560;2023-09-19T18:03:02;18.50;88.60
58983;DHT22;44771;49.982;8.560;2023-09-19T18:08:05;18.60;88.00
58983;DHT22;44771;49.982;8.560;2023-09-19T18:13:07;18.50;88.30
58983;DHT22;44771;49.982;8.560;2023-09-19T18:18:10;18.50;88.30
58983;DHT22;44771;49.982;8.560;2023-09-19T18:23:12;18.40;89.00
58983;DHT22;44771;49.982;8.560;2023-09-19T18:28:14;18.30;89.20
58983;DHT22;44771;49.982;8.560;2023-09-19T18:33:17;18.20;89.50
58983;DHT22;44771;49.982;8.560;2023-09-19T18:38:19;18.30;89.50
58983;DHT22;44771;49.982;8.560;2023-09-19T18:43:21;18.20;89.90
58983;DHT22;44771;49.982;8.560;2023-09-19T18:48:24;18.10;89.80
58983;DHT22;44771;49.982;8.560;2023-09-19T18:53:26;18.10;89.90
58983;DHT22;44771;49.982;8.560;2023-09-19T18:58:28;18.00;90.30
58983;DHT22;44771;49.982;8.560;2023-09-19T19:03:31;17.90;90.40
58983;DHT22;44771;49.982;8.560;2023-09-19T19:08:34;17.80;90.70
58983;DHT22;44771;49.982;8.560;2023-09-19T19:13:36;17.70;91.10
58983;DHT22;44771;49.982;8.560;2023-09-19T19:18:39;17.70;91.40
58983;DHT22;44771;49.982;8.560;2023-09-19T19:23:42;17.60;91.50
58983;DHT22;44771;49.982;8.560;2023-09-19T19:28:44;17.40;92.00
58983;DHT22;44771;49.982;8.560;2023-09-19T19:33:47;17.30;92.50
58983;DHT22;44771;49.982;8.560;2023-09-19T19:38:49;17.20;92.60
58983;DHT22;44771;49.982;8.560;2023-09-19T19:43:51;17.20;92.80
58983;DHT22;44771;49.982;8.560;2023-09-19T19:48:54;17.10;92.80
58983;DHT22;44771;49.982;8.560;2023-09-19T19:53:56;17.10;93.00
58983;DHT22;44771;49.982;8.560;2023-09-19T19:58:58;17.10;93.00
58983;DHT22;44771;49.982;8.560;2023-09-19T20:04:01;17.10;93.20
58983;DHT22;44771;49.982;8.560;2023-09-19T20:09:03;17.00;93.40
58983;DHT22;44771;49.982;8.560;2023-09-19T20:14:05;17.00;93.70
58983;DHT22;44771;49.982;8.560;2023-09-19T20:19:08;16.90;94.20
58983;DHT22;44771;49.982;8.560;2023-09-19T20:24:10;16.90;94.30
58983;DHT22;44771;49.982;8.560;2023-09-19T20:29:12;16.90;94.10
58983;DHT22;44771;49.982;8.560;2023-09-19T20:34:15;16.90;94.40
58983;DHT22;44771;49.982;8.560;2023-09-19T20:39:17;16.90;94.60
58983;DHT22;44771;49.982;8.560;2023-09-19T20:44:19;16.90;94.80
58983;DHT22;44771;49.982;8.560;2023-09-19T20:49:22;16.90;95.00
58983;DHT22;44771;49.982;8.560;2023-09-19T20:54:24;16.90;95.20
58983;DHT22;44771;49.982;8.560;2023-09-19T20:59:26;17.00;95.40
58983;DHT22;44771;49.982;8.560;2023-09-19T21:04:29;17.00;95.50
58983;DHT22;44771;49.982;8.560;2023-09-19T21:09:31;17.00;95.50
58983;DHT22;44771;49.982;8.560;2023-09-19T21:14:33;17.00;95.60
58983;DHT22;44771;49.982;8.560;2023-09-19T21:19:39;17.00;95.60
58983;DHT22;44771;49.982;8.560;2023-09-19T21:24:41;17.00;95.80
58983;DHT22;44771;49.982;8.560;2023-09-19T21:29:43;17.00;95.80
58983;DHT22;44771;49.982;8.560;2023-09-19T21:34:46;17.10;95.80
58983;DHT22;44771;49.982;8.560;2023-09-19T21:39:48;17.00;96.00
58983;DHT22;44771;49.982;8.560;2023-09-19T21:44:50;16.90;96.40
58983;DHT22;44771;49.982;8.560;2023-09-19T21:49:53;16.90;96.40
58983;DHT22;44771;49.982;8.560;2023-09-19T21:54:54;16.80;96.70
58983;DHT22;44771;49.982;8.560;2023-09-19T21:59:56;16.70;97.00
58983;DHT22;44771;49.982;8.560;2023-09-19T22:04:59;16.60;97.30
58983;DHT22;44771;49.982;8.560;2023-09-19T22:10:01;16.50;97.60
58983;DHT22;44771;49.982;8.560;2023-09-19T22:15:04;16.50;97.90
58983;DHT22;44771;49.982;8.560;2023-09-19T22:20:08;16.50;97.90
58983;DHT22;44771;49.982;8.560;2023-09-19T22:25:10;16.50;98.20
58983;DHT22;44771;49.982;8.560;2023-09-19T22:30:12;16.50;98.60
58983;DHT22;44771;49.982;8.560;2023-09-19T22:35:16;16.40;98.70
58983;DHT22;44771;49.982;8.560;2023-09-19T22:40:18;16.40;98.80
58983;DHT22;44771;49.982;8.560;2023-09-19T22:45:19;16.40;99.00
58983;DHT22;44771;49.982;8.560;2023-09-19T22:50:23;16.40;99.10
58983;DHT22;44771;49.982;8.560;2023-09-19T22:55:25;16.40;99.30
58983;DHT22;44771;49.982;8.560;2023-09-19T23:00:26;16.40;99.40
58983;DHT22;44771;49.982;8.560;2023-09-19T23:05:35;16.30;99.50
58983;DHT22;44771;49.982;8.560;2023-09-19T23:10:40;16.30;99.60
58983;DHT22;44771;49.982;8.560;2023-09-19T23:15:42;16.30;99.80
58983;DHT22;44771;49.982;8.560;2023-09-19T23:20:45;16.20;99.90
58983;DHT22;44771;49.982;8.560;2023-09-19T23:25:47;16.10;99.90
58983;DHT22;44771;49.982;8.560;2023-09-19T23:30:49;16.00;99.90
58983;DHT22;44771;49.982;8.560;2023-09-19T23:35:52;16.00;99.90
58983;DHT22;44771;49.982;8.560;2023-09-19T23:40:54;16.00;99.90
58983;DHT22;44771;49.982;8.560;2023-09-19T23:45:56;16.00;99.90
58983;DHT22;44771;49.982;8.560;2023-09-19T23:50:59;16.00;99.90
58983;DHT22;44771;49.982;8.560;2023-09-19T23:56:03;16.00;99.90
